sensor_id;sensor_type;location;lat;lon;timestamp;pressure;altitude;pressure_sealevel;temperature;humidity
13422;BME280;6782;55.904;13.396;2022-10-03T14:25:24;100597.03;;;15.59;100.00
13422;BME280;6782;55.904;13.396;2022-10-03T14:28:18;100530.47;;;15.24;100.00
13422;BME280;6782;55.904;13.396;2022-10-03T14:31:14;100619.19;;;15.40;100.00
13422;BME280;6782;55.904;13.396;2022-10-03T14:34:09;100624.97;;;15.29;100.00
13422;BME280;6782;55.904;13.396;2022-10-03T14:37:11;100655.00;;;15.31;100.00
13422;BME280;6782;55.904;13.396;2022-10-03T14:40:14;100642.78;;;15.27;100.00
13422;BME280;6782;55.904;13.396;2022-10-03T14:43:14;100614.44;;;15.07;100.00
13422;BME280;6782;55.904;13.396;2022-10-03T14:46:08;100622.84;;;14.77;100.00
13422;BME280;6782;55.904;13.396;2022-10-03T14:48:58;100707.88;;;14.97;100.00
13422;BME280;6782;55.904;13.396;2022-10-03T14:51:51;100749.97;;;15.06;100.00
13422;BME280;6782;55.904;13.396;2022-10-03T14:54:42;100696.16;;;14.81;100.00
13422;BME280;6782;55.904;13.396;2022-10-03T14:57:33;100730.31;;;15.10;100.00
13422;BME280;6782;55.904;13.396;2022-10-03T15:00:27;100626.50;;;14.74;100.00
13422;BME280;6782;55.904;13.396;2022-10-03T15:03:32;100610.91;;;14.67;100.00
13422;BME280;6782;55.904;13.396;2022-10-03T15:06:35;100603.59;;;14.52;100.00
13422;BME280;6782;55.904;13.396;2022-10-03T15:09:31;100587.66;;;14.30;100.00
13422;BME280;6782;55.904;13.396;2022-10-03T15:12:22;100629.16;;;14.32;100.00
13422;BME280;6782;55.904;13.396;2022-10-03T15:15:17;100596.06;;;14.19;100.00
13422;BME280;6782;55.904;13.396;2022-10-03T15:18:12;100668.69;;;14.38;100.00
13422;BME280;6782;55.904;13.396;2022-10-03T15:21:02;100681.63;;;14.24;100.00
13422;BME280;6782;55.904;13.396;2022-10-03T15:23:54;100689.53;;;14.03;100.00
13422;BME280;6782;55.904;13.396;2022-10-03T15:26:54;100768.22;;;14.02;100.00
13422;BME280;6782;55.904;13.396;2022-10-03T15:29:46;100791.16;;;14.03;100.00
13422;BME280;6782;55.904;13.396;2022-10-03T15:32:38;100801.78;;;14.03;100.00
13422;BME280;6782;55.904;13.396;2022-10-03T15:35:30;100826.34;;;14.08;100.00
13422;BME280;6782;55.904;13.396;2022-10-03T15:38:22;100811.75;;;13.97;100.00
13422;BME280;6782;55.904;13.396;2022-10-03T15:41:12;100835.09;;;14.10;100.00
13422;BME280;6782;55.904;13.396;2022-10-03T15:44:05;100817.09;;;13.95;100.00
13422;BME280;6782;55.904;13.396;2022-10-03T15:47:03;100825.50;;;13.83;100.00
13422;BME280;6782;55.904;13.396;2022-10-03T15:49:54;100827.22;;;13.84;100.00
13422;BME280;6782;55.904;13.396;2022-10-03T15:52:48;100828.94;;;13.85;100.00
13422;BME280;6782;55.904;13.396;2022-10-03T15:55:40;100844.94;;;13.84;100.00
13422;BME280;6782;55.904;13.396;2022-10-03T15:58:32;100816.94;;;13.50;100.00
13422;BME280;6782;55.904;13.396;2022-10-03T16:01:23;100876.31;;;13.69;100.00
13422;BME280;6782;55.904;13.396;2022-10-03T16:04:17;100867.53;;;13.43;100.00
13422;BME280;6782;55.904;13.396;2022-10-03T16:07:08;100880.06;;;13.38;100.00
13422;BME280;6782;55.904;13.396;2022-10-03T16:10:13;100887.19;;;13.36;100.00
13422;BME280;6782;55.904;13.396;2022-10-03T16:13:12;100893.84;;;13.21;100.00
13422;BME280;6782;55.904;13.396;2022-10-03T16:16:12;100899.69;;;13.31;100.00
13422;BME280;6782;55.904;13.396;2022-10-03T16:19:19;100896.56;;;13.20;100.00
13422;BME280;6782;55.904;13.396;2022-10-03T16:22:15;100901.00;;;13.17;100.00
13422;BME280;6782;55.904;13.396;2022-10-03T16:25:08;100885.94;;;12.90;100.00
13422;BME280;6782;55.904;13.396;2022-10-03T16:28:02;100899.19;;;12.90;100.00
13422;BME280;6782;55.904;13.396;2022-10-03T16:30:56;100908.75;;;12.94;100.00
13422;BME280;6782;55.904;13.396;2022-10-03T16:33:49;100889.16;;;12.72;100.00
13422;BME280;6782;55.904;13.396;2022-10-03T16:36:43;100909.44;;;12.72;100.00
13422;BME280;6782;55.904;13.396;2022-10-03T16:39:33;100919.78;;;12.81;100.00
13422;BME280;6782;55.904;13.396;2022-10-03T16:42:24;100916.50;;;12.71;100.00
13422;BME280;6782;55.904;13.396;2022-10-03T16:45:20;100930.75;;;12.67;100.00
13422;BME280;6782;55.904;13.396;2022-10-03T16:48:13;100930.16;;;12.57;100.00
13422;BME280;6782;55.904;13.396;2022-10-03T16:51:23;100940.88;;;12.53;100.00
13422;BME280;6782;55.904;13.396;2022-10-03T16:54:15;100942.59;;;12.54;100.00
13422;BME280;6782;55.904;13.396;2022-10-03T16:57:10;100948.91;;;12.50;100.00
13422;BME280;6782;55.904;13.396;2022-10-03T17:00:01;100941.41;;;12.35;100.00
13422;BME280;6782;55.904;13.396;2022-10-03T17:02:53;100943.44;;;12.24;100.00
13422;BME280;6782;55.904;13.396;2022-10-03T17:05:44;100948.59;;;12.30;100.00
13422;BME280;6782;55.904;13.396;2022-10-03T17:08:39;100950.50;;;12.25;100.00
13422;BME280;6782;55.904;13.396;2022-10-03T17:11:35;100960.13;;;12.26;100.00
13422;BME280;6782;55.904;13.396;2022-10-03T17:14:29;100957.75;;;12.17;100.00
13422;BME280;6782;55.904;13.396;2022-10-03T17:17:27;100956.34;;;12.04;100.00
13422;BME280;6782;55.904;13.396;2022-10-03T17:20:20;100964.69;;;12.21;100.00
13422;BME280;6782;55.904;13.396;2022-10-03T17:23:23;100954.38;;;12.12;100.00
13422;BME280;6782;55.904;13.396;2022-10-03T17:26:15;100954.66;;;12.00;100.00
13422;BME280;6782;55.904;13.396;2022-10-03T17:29:12;100961.63;;;12.04;100.00
13422;BME280;6782;55.904;13.396;2022-10-03T17:32:14;100947.94;;;11.86;100.00
13422;BME280;6782;55.904;13.396;2022-10-03T17:35:11;100961.69;;;12.01;100.00
13422;BME280;6782;55.904;13.396;2022-10-03T17:38:12;100965.22;;;12.00;100.00
13422;BME280;6782;55.904;13.396;2022-10-03T17:41:13;100965.00;;;12.09;100.00
13422;BME280;6782;55.904;13.396;2022-10-03T17:44:13;100959.44;;;11.85;100.00
13422;BME280;6782;55.904;13.396;2022-10-03T17:47:10;100973.41;;;11.90;100.00
13422;BME280;6782;55.904;13.396;2022-10-03T17:50:03;100964.41;;;11.62;100.00
13422;BME280;6782;55.904;13.396;2022-10-03T17:52:54;100972.25;;;11.65;100.00
13422;BME280;6782;55.904;13.396;2022-10-03T17:55:43;100978.50;;;11.61;100.00
13422;BME280;6782;55.904;13.396;2022-10-03T17:58:31;100968.00;;;11.20;100.00
13422;BME280;6782;55.904;13.396;2022-10-03T18:01:23;100995.28;;;11.59;100.00
13422;BME280;6782;55.904;13.396;2022-10-03T18:04:16;100990.06;;;11.57;100.00
13422;BME280;6782;55.904;13.396;2022-10-03T18:07:10;100991.38;;;11.38;100.00
13422;BME280;6782;55.904;13.396;2022-10-03T18:10:01;101001.56;;;11.53;100.00
13422;BME280;6782;55.904;13.396;2022-10-03T18:12:52;100997.81;;;11.63;100.00
13422;BME280;6782;55.904;13.396;2022-10-03T18:15:56;101001.50;;;11.56;100.00
13422;BME280;6782;55.904;13.396;2022-10-03T18:22:13;100991.59;;;11.29;100.00
13422;BME280;6782;55.904;13.396;2022-10-03T18:25:12;100990.00;;;11.22;100.00
13422;BME280;6782;55.904;13.396;2022-10-03T18:28:20;100991.06;;;11.13;100.00
13422;BME280;6782;55.904;13.396;2022-10-03T18:31:11;100992.03;;;11.08;100.00
13422;BME280;6782;55.904;13.396;2022-10-03T18:34:06;101007.09;;;11.44;100.00
13422;BME280;6782;55.904;13.396;2022-10-03T18:36:55;100991.00;;;11.16;100.00
13422;BME280;6782;55.904;13.396;2022-10-03T18:39:43;100983.41;;;11.00;100.00
13422;BME280;6782;55.904;13.396;2022-10-03T18:42:34;100990.38;;;11.04;100.00
13422;BME280;6782;55.904;13.396;2022-10-03T18:45:26;100975.66;;;10.92;100.00
13422;BME280;6782;55.904;13.396;2022-10-03T18:48:19;100974.94;;;10.84;100.00
13422;BME280;6782;55.904;13.396;2022-10-03T18:51:14;100978.94;;;11.03;100.00
13422;BME280;6782;55.904;13.396;2022-10-03T18:54:08;100970.94;;;11.08;100.00
13422;BME280;6782;55.904;13.396;2022-10-03T18:57:07;100972.91;;;10.97;100.00
13422;BME280;6782;55.904;13.396;2022-10-03T19:00:03;100966.16;;;10.84;100.00
13422;BME280;6782;55.904;13.396;2022-10-03T19:02:54;100960.88;;;10.84;100.00
13422;BME280;6782;55.904;13.396;2022-10-03T19:05:46;100960.06;;;10.82;100.00
13422;BME280;6782;55.904;13.396;2022-10-03T19:08:39;100969.66;;;10.86;100.00
13422;BME280;6782;55.904;13.396;2022-10-03T19:11:29;100967.09;;;10.83;100.00
13422;BME280;6782;55.904;13.396;2022-10-03T19:14:26;100965.00;;;10.97;100.00
13422;BME280;6782;55.904;13.396;2022-10-03T19:17:21;100969.34;;;11.01;100.00
13422;BME280;6782;55.904;13.396;2022-10-03T19:20:19;100973.06;;;10.91;100.00
13422;BME280;6782;55.904;13.396;2022-10-03T19:23:11;100967.25;;;10.74;100.00
13422;BME280;6782;55.904;13.396;2022-10-03T19:26:03;100974.88;;;10.89;100.00
13422;BME280;6782;55.904;13.396;2022-10-03T19:28:54;100976.47;;;10.96;100.00
13422;BME280;6782;55.904;13.396;2022-10-03T19:31:50;100976.34;;;11.02;100.00
13422;BME280;6782;55.904;13.396;2022-10-03T19:34:42;100977.75;;;10.78;100.00
13422;BME280;6782;55.904;13.396;2022-10-03T19:37:38;100985.28;;;10.95;100.00
13422;BME280;6782;55.904;13.396;2022-10-03T19:41:31;62769.09;;;-143.06;100.00
13422;BME280;6782;55.904;13.396;2022-10-03T19:45:21;62769.09;;;-143.06;100.00
13422;BME280;6782;55.904;13.396;2022-10-03T19:48:10;100985.97;;;10.61;100.00
13422;BME280;6782;55.904;13.396;2022-10-03T19:51:08;100989.50;;;10.62;100.00
13422;BME280;6782;55.904;13.396;2022-10-03T19:53:56;100986.69;;;10.69;100.00
13422;BME280;6782;55.904;13.396;2022-10-03T19:56:44;62769.09;;;-143.06;100.00
13422;BME280;6782;55.904;13.396;2022-10-03T19:59:42;62769.09;;;-143.06;100.00
13422;BME280;6782;55.904;13.396;2022-10-03T20:02:29;62769.09;;;-143.06;100.00
13422;BME280;6782;55.904;13.396;2022-10-03T20:05:20;62769.09;;;-143.06;100.00
13422;BME280;6782;55.904;13.396;2022-10-03T20:08:20;62769.09;;;-143.06;100.00
13422;BME280;6782;55.904;13.396;2022-10-03T20:11:33;62769.09;;;-143.06;100.00
13422;BME280;6782;55.904;13.396;2022-10-03T20:14:25;62769.09;;;-143.06;100.00
13422;BME280;6782;55.904;13.396;2022-10-03T20:17:16;62769.09;;;-143.06;100.00
13422;BME280;6782;55.904;13.396;2022-10-03T20:20:08;62769.09;;;-143.06;100.00
13422;BME280;6782;55.904;13.396;2022-10-03T20:23:03;62769.09;;;-143.06;100.00
13422;BME280;6782;55.904;13.396;2022-10-03T20:25:56;62769.09;;;-143.06;100.00
13422;BME280;6782;55.904;13.396;2022-10-03T20:28:58;62769.09;;;-143.06;100.00
13422;BME280;6782;55.904;13.396;2022-10-03T20:31:48;100966.84;;;10.50;100.00
13422;BME280;6782;55.904;13.396;2022-10-03T20:34:36;100965.06;;;10.52;100.00
13422;BME280;6782;55.904;13.396;2022-10-03T20:37:37;100960.84;;;10.44;100.00
13422;BME280;6782;55.904;13.396;2022-10-03T20:40:30;100956.50;;;10.41;100.00
13422;BME280;6782;55.904;13.396;2022-10-03T20:43:32;100971.09;;;10.59;100.00
13422;BME280;6782;55.904;13.396;2022-10-03T20:46:25;100966.06;;;10.47;100.00
13422;BME280;6782;55.904;13.396;2022-10-03T20:49:26;100967.09;;;10.38;100.00
13422;BME280;6782;55.904;13.396;2022-10-03T20:52:18;100972.22;;;10.47;100.00
13422;BME280;6782;55.904;13.396;2022-10-03T20:55:15;100956.69;;;10.31;100.00
13422;BME280;6782;55.904;13.396;2022-10-03T20:58:14;100964.94;;;10.58;100.00
13422;BME280;6782;55.904;13.396;2022-10-03T21:01:08;100964.19;;;10.52;100.00
13422;BME280;6782;55.904;13.396;2022-10-03T21:04:04;100956.44;;;10.44;100.00
13422;BME280;6782;55.904;13.396;2022-10-03T21:06:55;100961.75;;;10.41;100.00
13422;BME280;6782;55.904;13.396;2022-10-03T21:09:48;100966.09;;;10.44;100.00
13422;BME280;6782;55.904;13.396;2022-10-03T21:12:43;100964.97;;;10.55;100.00
13422;BME280;6782;55.904;13.396;2022-10-03T21:15:38;100962.38;;;10.54;100.00
13422;BME280;6782;55.904;13.396;2022-10-03T21:18:31;100958.34;;;10.36;100.00
13422;BME280;6782;55.904;13.396;2022-10-03T21:21:24;100954.75;;;10.40;100.00
13422;BME280;6782;55.904;13.396;2022-10-03T21:24:17;100951.06;;;10.49;100.00
13422;BME280;6782;55.904;13.396;2022-10-03T21:27:11;100954.03;;;10.32;100.00
13422;BME280;6782;55.904;13.396;2022-10-03T21:30:04;100950.50;;;10.33;100.00
13422;BME280;6782;55.904;13.396;2022-10-03T21:33:07;100953.06;;;10.36;100.00
13422;BME280;6782;55.904;13.396;2022-10-03T21:36:05;100959.03;;;10.47;100.00
13422;BME280;6782;55.904;13.396;2022-10-03T21:39:04;100954.53;;;10.52;100.00
13422;BME280;6782;55.904;13.396;2022-10-03T21:42:03;100959.84;;;10.49;100.00
13422;BME280;6782;55.904;13.396;2022-10-03T21:45:10;100950.19;;;10.48;100.00
13422;BME280;6782;55.904;13.396;2022-10-03T21:48:11;100945.84;;;10.47;100.00
13422;BME280;6782;55.904;13.396;2022-10-03T21:51:17;100943.41;;;10.37;100.00
13422;BME280;6782;55.904;13.396;2022-10-03T21:54:26;100936.28;;;10.40;100.00
13422;BME280;6782;55.904;13.396;2022-10-03T21:57:20;62769.09;;;-143.06;100.00
13422;BME280;6782;55.904;13.396;2022-10-03T22:00:13;62769.09;;;-143.06;100.00
13422;BME280;6782;55.904;13.396;2022-10-03T22:03:07;62769.09;;;-143.06;100.00
13422;BME280;6782;55.904;13.396;2022-10-03T22:07:06;62769.09;;;-143.06;100.00
13422;BME280;6782;55.904;13.396;2022-10-03T22:10:58;62769.09;;;-143.06;100.00
13422;BME280;6782;55.904;13.396;2022-10-03T22:14:54;62769.09;;;-143.06;100.00
13422;BME280;6782;55.904;13.396;2022-10-03T22:17:50;100924.91;;;10.38;100.00
13422;BME280;6782;55.904;13.396;2022-10-03T22:20:49;100928.38;;;10.40;100.00
13422;BME280;6782;55.904;13.396;2022-10-03T22:23:47;100928.31;;;10.43;100.00
13422;BME280;6782;55.904;13.396;2022-10-03T22:26:41;100930.84;;;10.48;100.00
13422;BME280;6782;55.904;13.396;2022-10-03T22:29:34;100925.41;;;10.11;100.00
13422;BME280;6782;55.904;13.396;2022-10-03T22:32:33;100917.81;;;9.94;100.00
13422;BME280;6782;55.904;13.396;2022-10-03T22:35:35;100914.94;;;10.08;100.00
13422;BME280;6782;55.904;13.396;2022-10-03T22:38:28;100923.53;;;10.19;100.00
13422;BME280;6782;55.904;13.396;2022-10-03T22:41:20;100920.16;;;10.11;100.00
13422;BME280;6782;55.904;13.396;2022-10-03T22:44:11;100918.19;;;10.22;100.00
13422;BME280;6782;55.904;13.396;2022-10-03T22:47:07;100908.81;;;10.06;100.00
13422;BME280;6782;55.904;13.396;2022-10-03T22:50:00;100906.13;;;10.09;100.00
13422;BME280;6782;55.904;13.396;2022-10-03T22:52:49;100901.94;;;9.97;100.00
13422;BME280;6782;55.904;13.396;2022-10-03T22:55:42;100887.56;;;10.17;100.00
13422;BME280;6782;55.904;13.396;2022-10-03T22:58:32;100878.09;;;10.05;100.00
13422;BME280;6782;55.904;13.396;2022-10-03T23:01:20;100868.44;;;10.04;100.00
13422;BME280;6782;55.904;13.396;2022-10-03T23:04:12;100862.38;;;9.99;100.00
13422;BME280;6782;55.904;13.396;2022-10-03T23:07:12;100861.06;;;10.24;100.00
13422;BME280;6782;55.904;13.396;2022-10-03T23:10:14;100853.06;;;10.27;100.00
13422;BME280;6782;55.904;13.396;2022-10-03T23:13:09;100847.69;;;10.33;100.00
13422;BME280;6782;55.904;13.396;2022-10-03T23:16:08;100851.72;;;10.05;100.00
13422;BME280;6782;55.904;13.396;2022-10-03T23:19:16;100848.97;;;10.14;100.00
13422;BME280;6782;55.904;13.396;2022-10-03T23:22:11;100847.13;;;10.18;100.00
13422;BME280;6782;55.904;13.396;2022-10-03T23:25:02;100834.06;;;10.10;100.00
13422;BME280;6782;55.904;13.396;2022-10-03T23:28:01;100823.63;;;10.05;100.00
13422;BME280;6782;55.904;13.396;2022-10-03T23:30:55;100828.78;;;10.10;100.00
13422;BME280;6782;55.904;13.396;2022-10-03T23:33:48;100815.78;;;10.02;100.00
13422;BME280;6782;55.904;13.396;2022-10-03T23:37:00;100820.13;;;10.05;100.00
13422;BME280;6782;55.904;13.396;2022-10-03T23:40:19;100810.06;;;10.25;100.00
13422;BME280;6782;55.904;13.396;2022-10-03T23:43:25;100805.06;;;10.13;100.00
13422;BME280;6782;55.904;13.396;2022-10-03T23:46:15;100800.00;;;10.01;100.00
13422;BME280;6782;55.904;13.396;2022-10-03T23:49:06;100794.13;;;10.31;100.00
13422;BME280;6782;55.904;13.396;2022-10-03T23:51:55;100782.88;;;10.23;100.00
13422;BME280;6782;55.904;13.396;2022-10-03T23:54:44;100781.13;;;10.22;100.00
13422;BME280;6782;55.904;13.396;2022-10-03T23:57:37;100779.13;;;10.33;100.00
